createdAt,value
2018-11-03T00:00:25.571Z,11.77
2018-11-03T00:02:55.273Z,13.33
2018-11-03T00:05:24.937Z,14.83
2018-11-03T00:07:54.654Z,13.20
2018-11-03T00:10:24.310Z,13.63
2018-11-03T00:12:53.987Z,13.53
2018-11-03T00:15:23.659Z,13.73
2018-11-03T00:17:53.313Z,18.37
2018-11-03T00:20:22.968Z,13.27
2018-11-03T00:22:52.775Z,17.43
2018-11-03T00:25:22.428Z,17.03
2018-11-03T00:27:52.134Z,15.30
2018-11-03T00:30:21.813Z,14.90
2018-11-03T00:32:51.456Z,17.80
2018-11-03T00:35:21.164Z,56.83
2018-11-03T00:37:50.830Z,63.63
2018-11-03T00:40:20.501Z,36.13
2018-11-03T00:42:50.236Z,48.27
2018-11-03T00:45:19.901Z,34.80
2018-11-03T00:47:49.588Z,25.53
2018-11-03T00:50:19.284Z,18.50
2018-11-03T00:52:48.957Z,20.73
2018-11-03T00:55:18.638Z,23.13
2018-11-03T00:57:48.322Z,25.30
2018-11-03T01:00:18.952Z,25.83
2018-11-03T01:02:49.737Z,22.17
2018-11-03T01:05:19.400Z,18.50
2018-11-03T01:07:49.140Z,22.73
2018-11-03T01:10:18.882Z,19.43
2018-11-03T01:12:48.536Z,19.53
2018-11-03T01:15:18.712Z,19.57
2018-11-03T01:17:48.348Z,16.67
2018-11-03T01:20:18.539Z,22.73
2018-11-03T01:22:48.219Z,19.03
2018-11-03T01:25:17.908Z,18.43
2018-11-03T01:27:47.674Z,20.60
2018-11-03T01:30:17.762Z,23.13
2018-11-03T01:32:47.456Z,23.03
2018-11-03T01:35:17.137Z,18.17
2018-11-03T01:37:46.785Z,25.37
2018-11-03T01:40:16.482Z,19.17
2018-11-03T01:42:46.133Z,19.10
2018-11-03T01:45:15.833Z,20.63
2018-11-03T01:47:45.539Z,20.70
2018-11-03T01:50:15.214Z,22.67
2018-11-03T01:52:44.877Z,21.30
2018-11-03T01:55:14.607Z,19.27
2018-11-03T01:57:44.228Z,18.23
2018-11-03T02:00:13.931Z,20.90
2018-11-03T02:02:43.625Z,17.60
2018-11-03T02:05:13.296Z,20.37
2018-11-03T02:07:42.972Z,15.40
2018-11-03T02:10:13.068Z,19.63
2018-11-03T02:12:42.860Z,17.50
2018-11-03T02:15:12.959Z,19.70
2018-11-03T02:17:42.715Z,16.83
2018-11-03T02:20:12.613Z,17.53
2018-11-03T02:22:42.317Z,19.63
2018-11-03T02:25:12.029Z,19.37
2018-11-03T02:27:42.161Z,20.73
2018-11-03T02:30:12.628Z,17.90
2018-11-03T02:32:42.396Z,17.63
2018-11-03T02:35:12.470Z,15.63
2018-11-03T02:37:42.333Z,14.70
2018-11-03T02:40:12.964Z,17.93
2018-11-03T02:42:43.187Z,15.00
2018-11-03T02:45:12.993Z,18.77
2018-11-03T02:47:42.894Z,18.10
2018-11-03T02:50:15.208Z,17.13
2018-11-03T02:52:44.877Z,19.13
2018-11-03T02:55:15.472Z,21.37
2018-11-03T02:57:45.132Z,18.83
2018-11-03T03:00:14.845Z,17.90
2018-11-03T03:02:44.543Z,16.20
2018-11-03T03:05:14.201Z,18.00
2018-11-03T03:07:43.875Z,18.50
2018-11-03T03:10:13.731Z,16.97
2018-11-03T03:12:43.382Z,20.50
2018-11-03T03:15:13.753Z,16.00
2018-11-03T03:17:43.940Z,17.10
2018-11-03T03:20:13.709Z,18.97
2018-11-03T03:22:43.376Z,16.40
2018-11-03T03:25:13.152Z,17.70
2018-11-03T03:27:42.886Z,18.47
2018-11-03T03:30:12.750Z,18.03
2018-11-03T03:32:42.500Z,21.10
2018-11-03T03:35:12.185Z,15.20
2018-11-03T03:37:41.828Z,18.90
2018-11-03T03:40:11.843Z,16.93
2018-11-03T03:42:41.481Z,16.23
2018-11-03T03:45:11.649Z,16.43
2018-11-03T03:47:41.300Z,18.37
2018-11-03T03:50:11.684Z,19.03
2018-11-03T03:52:41.330Z,16.47
2018-11-03T03:55:11.099Z,21.03
2018-11-03T03:57:40.759Z,17.23
2018-11-03T04:00:11.860Z,17.40
2018-11-03T04:02:41.851Z,17.40
2018-11-03T04:05:11.575Z,17.73
2018-11-03T04:07:41.236Z,16.27
2018-11-03T04:10:11.140Z,17.50
2018-11-03T04:12:41.014Z,20.50
2018-11-03T04:15:10.740Z,17.80
2018-11-03T04:17:40.433Z,21.20
2018-11-03T04:20:10.138Z,17.00
2018-11-03T04:22:39.794Z,20.67
2018-11-03T04:25:09.532Z,22.13
2018-11-03T04:27:39.250Z,20.37
2018-11-03T04:30:12.019Z,16.37
2018-11-03T04:32:42.095Z,23.20
2018-11-03T04:35:12.260Z,21.83
2018-11-03T04:37:41.932Z,22.30
2018-11-03T04:40:12.958Z,19.87
2018-11-03T04:42:42.898Z,22.70
2018-11-03T04:45:13.173Z,23.47
2018-11-03T04:47:42.874Z,22.37
2018-11-03T04:50:12.539Z,21.77
2018-11-03T04:52:42.261Z,21.50
2018-11-03T04:55:12.042Z,22.90
2018-11-03T04:57:41.591Z,18.80
2018-11-03T05:00:11.841Z,24.37
2018-11-03T05:02:41.500Z,23.20
2018-11-03T05:05:11.216Z,22.10
2018-11-03T05:07:40.891Z,22.67
2018-11-03T05:10:10.597Z,20.03
2018-11-03T05:12:40.281Z,19.73
2018-11-03T05:15:09.948Z,21.00
2018-11-03T05:17:39.589Z,18.70
2018-11-03T05:20:09.379Z,24.07
2018-11-03T05:22:39.036Z,21.30
2018-11-03T05:25:08.730Z,24.07
2018-11-03T05:27:38.441Z,26.13
2018-11-03T05:30:08.617Z,23.00
2018-11-03T05:32:38.492Z,24.83
2018-11-03T05:35:08.156Z,21.57
2018-11-03T05:37:37.812Z,20.90
2018-11-03T05:40:07.579Z,22.23
2018-11-03T05:42:37.233Z,21.00
2018-11-03T05:45:06.983Z,23.13
2018-11-03T05:47:36.684Z,21.27
2018-11-03T05:50:07.643Z,23.13
2018-11-03T05:52:37.424Z,21.60
2018-11-03T05:55:08.159Z,20.07
2018-11-03T05:57:37.853Z,22.90
2018-11-03T06:00:09.361Z,21.83
2018-11-03T06:02:39.155Z,23.93
2018-11-03T06:05:08.848Z,29.57
2018-11-03T06:07:38.514Z,21.13
2018-11-03T06:10:08.899Z,20.83
2018-11-03T06:12:38.825Z,24.20
2018-11-03T06:15:08.574Z,24.20
2018-11-03T06:17:38.224Z,21.50
2018-11-03T06:20:08.048Z,22.87
2018-11-03T06:22:37.903Z,24.13
2018-11-03T06:25:09.081Z,24.00
2018-11-03T06:27:39.240Z,20.40
2018-11-03T06:30:10.554Z,20.97
2018-11-03T06:32:40.508Z,22.73
2018-11-03T06:35:11.290Z,24.30
2018-11-03T06:37:40.908Z,22.00
2018-11-03T06:40:10.628Z,31.37
2018-11-03T06:42:40.317Z,22.77
2018-11-03T06:45:10.615Z,24.60
2018-11-03T06:47:40.336Z,29.53
2018-11-03T06:50:10.044Z,25.63
2018-11-03T06:52:39.717Z,36.07
2018-11-03T06:55:09.504Z,26.40
2018-11-03T06:57:39.166Z,64.13
2018-11-03T07:00:09.866Z,100.63
2018-11-03T07:02:39.585Z,64.33
2018-11-03T07:05:10.194Z,76.23
2018-11-03T07:07:40.116Z,285.90
2018-11-03T07:10:10.984Z,190.43
2018-11-03T07:12:41.157Z,95.77
2018-11-03T07:15:10.696Z,183.23
2018-11-03T07:17:40.370Z,210.83
2018-11-03T07:20:11.777Z,264.57
2018-11-03T07:22:41.712Z,169.50
2018-11-03T07:25:11.474Z,172.73
2018-11-03T07:27:41.163Z,182.00
2018-11-03T07:30:12.373Z,106.40
2018-11-03T07:32:42.076Z,73.70
2018-11-03T07:35:11.779Z,213.87
2018-11-03T07:37:41.486Z,83.23
2018-11-03T07:40:11.704Z,99.97
2018-11-03T07:42:41.548Z,83.53
2018-11-03T07:45:11.457Z,101.47
2018-11-03T07:47:41.317Z,71.10
2018-11-03T07:50:12.595Z,51.27
2018-11-03T07:52:42.832Z,37.20
2018-11-03T07:55:13.368Z,47.87
2018-11-03T07:57:43.103Z,41.80
2018-11-03T08:00:13.849Z,33.83
2018-11-03T08:02:43.552Z,33.67
2018-11-03T08:05:13.284Z,36.40
2018-11-03T08:07:43.049Z,56.70
2018-11-03T08:10:13.053Z,37.73
2018-11-03T08:12:42.810Z,61.37
2018-11-03T08:15:12.797Z,41.57
2018-11-03T08:17:42.548Z,65.77
2018-11-03T08:20:12.731Z,46.30
2018-11-03T08:22:42.470Z,37.13
2018-11-03T08:25:12.202Z,57.33
2018-11-03T08:27:41.925Z,49.07
2018-11-03T08:30:13.328Z,52.60
2018-11-03T08:32:43.330Z,51.33
2018-11-03T08:35:13.681Z,39.30
2018-11-03T08:37:49.844Z,57.67
2018-11-03T08:40:19.561Z,44.73
2018-11-03T08:42:49.317Z,41.40
2018-11-03T08:45:19.063Z,38.37
2018-11-03T08:47:48.788Z,29.90
2018-11-03T08:50:18.596Z,31.97
2018-11-03T08:52:48.419Z,31.23
2018-11-03T08:55:18.140Z,27.57
2018-11-03T08:57:47.897Z,30.07
2018-11-03T09:00:17.756Z,28.80
2018-11-03T09:02:47.356Z,27.90
2018-11-03T09:05:17.046Z,25.47
2018-11-03T09:07:46.768Z,22.70
2018-11-03T09:10:16.471Z,23.53
2018-11-03T09:12:46.211Z,28.60
2018-11-03T09:15:16.045Z,29.53
2018-11-03T09:17:45.892Z,22.30
2018-11-03T09:20:15.580Z,24.03
2018-11-03T09:22:45.382Z,23.93
2018-11-03T09:25:16.138Z,19.57
2018-11-03T09:27:46.086Z,22.70
2018-11-03T09:30:17.732Z,18.33
2018-11-03T09:32:47.456Z,18.87
2018-11-03T09:35:17.589Z,21.03
2018-11-03T09:37:47.387Z,18.73
2018-11-03T09:40:17.808Z,18.33
2018-11-03T09:42:48.424Z,21.27
2018-11-03T09:45:18.124Z,15.47
2018-11-03T09:47:47.875Z,16.50
2018-11-03T09:50:17.576Z,12.63
2018-11-03T09:52:47.302Z,14.93
2018-11-03T09:55:18.376Z,12.53
2018-11-03T09:57:48.124Z,10.73
2018-11-03T10:00:19.096Z,11.03
2018-11-03T10:02:48.814Z,10.03
2018-11-03T10:05:18.547Z,14.87
2018-11-03T10:07:48.292Z,10.83
2018-11-03T10:10:19.273Z,13.57
2018-11-03T10:12:49.012Z,10.70
2018-11-03T10:15:19.424Z,13.47
2018-11-03T10:17:49.137Z,12.40
2018-11-03T10:20:18.864Z,11.27
2018-11-03T10:22:48.742Z,9.80
2018-11-03T10:25:19.821Z,5.77
2018-11-03T10:27:49.874Z,5.70
2018-11-03T10:30:19.609Z,6.53
2018-11-03T10:32:49.309Z,3.57
2018-11-03T10:35:19.024Z,5.90
2018-11-03T10:37:48.773Z,6.10
2018-11-03T10:40:18.908Z,5.37
2018-11-03T10:42:48.623Z,5.23
2018-11-03T10:45:18.316Z,3.77
2018-11-03T10:47:48.029Z,4.93
2018-11-03T10:50:18.926Z,6.10
2018-11-03T10:52:49.018Z,5.33
2018-11-03T10:55:19.744Z,4.97
2018-11-03T10:57:49.476Z,4.80
2018-11-03T11:00:25.416Z,6.63
2018-11-03T11:03:00.578Z,7.70
2018-11-03T11:05:35.908Z,7.83
2018-11-03T11:09:13.733Z,5.80
2018-11-03T11:11:48.650Z,12.13
2018-11-03T11:14:19.013Z,8.67
2018-11-03T11:16:48.690Z,9.93
2018-11-03T11:19:18.362Z,7.43
2018-11-03T11:21:48.122Z,7.37
2018-11-03T11:24:18.005Z,10.30
2018-11-03T11:26:47.597Z,9.43
2018-11-03T11:29:17.271Z,8.43
2018-11-03T11:31:47.000Z,9.37
2018-11-03T11:34:16.666Z,8.83
2018-11-03T11:36:46.394Z,8.40
2018-11-03T11:39:16.077Z,9.60
2018-11-03T11:41:45.973Z,8.90
2018-11-03T11:44:15.662Z,7.67
2018-11-03T11:46:45.381Z,7.47
2018-11-03T11:49:15.146Z,8.67
2018-11-03T11:51:44.877Z,8.40
2018-11-03T11:54:14.679Z,8.17
2018-11-03T11:56:44.406Z,8.83
2018-11-03T11:59:14.108Z,10.80
2018-11-03T12:01:43.862Z,6.40
2018-11-03T12:04:13.634Z,7.03
2018-11-03T12:06:43.346Z,7.07
2018-11-03T12:09:13.028Z,6.27
2018-11-03T12:11:42.785Z,10.03
2018-11-03T12:14:12.558Z,9.30
2018-11-03T12:16:42.307Z,18.57
2018-11-03T12:19:11.994Z,17.67
2018-11-03T12:21:41.748Z,7.00
2018-11-03T12:24:11.374Z,7.60
2018-11-03T12:26:41.163Z,5.00
2018-11-03T12:29:10.848Z,6.57
2018-11-03T12:31:40.569Z,7.57
2018-11-03T12:34:10.232Z,12.07
2018-11-03T12:36:39.887Z,6.70
2018-11-03T12:39:10.097Z,7.40
2018-11-03T12:41:39.785Z,12.27
2018-11-03T12:44:09.493Z,7.60
2018-11-03T12:46:39.180Z,6.93
2018-11-03T12:49:08.882Z,7.63
2018-11-03T12:51:38.534Z,6.20
2018-11-03T12:54:08.228Z,7.97
2018-11-03T12:56:37.883Z,9.03
2018-11-03T12:59:07.622Z,6.30
2018-11-03T13:01:37.260Z,11.70
2018-11-03T13:04:06.960Z,8.83
2018-11-03T13:06:36.653Z,12.63
2018-11-03T13:09:08.812Z,7.40
2018-11-03T13:11:38.508Z,10.30
2018-11-03T13:14:11.437Z,12.00
2018-11-03T13:16:41.088Z,11.17
2018-11-03T13:19:10.774Z,6.63
2018-11-03T13:21:40.417Z,7.83
2018-11-03T13:24:10.126Z,8.47
2018-11-03T13:26:39.818Z,7.27
2018-11-03T13:29:09.940Z,11.20
2018-11-03T13:31:39.611Z,9.50
2018-11-03T13:34:09.298Z,12.70
2018-11-03T13:36:39.211Z,6.70
2018-11-03T13:39:09.868Z,8.23
2018-11-03T13:41:39.547Z,9.27
2018-11-03T13:44:09.288Z,7.83
2018-11-03T13:46:38.983Z,9.50
2018-11-03T13:49:08.656Z,7.63
2018-11-03T13:51:38.309Z,8.83
2018-11-03T13:54:07.986Z,10.53
2018-11-03T13:56:37.787Z,8.43
2018-11-03T13:59:07.660Z,7.70
2018-11-03T14:01:37.419Z,7.40
2018-11-03T14:04:07.092Z,8.47
2018-11-03T14:06:36.768Z,7.50
2018-11-03T14:09:07.849Z,8.47
2018-11-03T14:11:37.512Z,10.10
2018-11-03T14:14:07.236Z,7.90
2018-11-03T14:16:36.956Z,7.27
2018-11-03T14:19:06.701Z,7.93
2018-11-03T14:21:36.367Z,7.63
2018-11-03T14:24:06.380Z,10.67
2018-11-03T14:26:36.112Z,10.30
2018-11-03T14:29:06.204Z,7.50
2018-11-03T14:31:35.813Z,8.57
2018-11-03T14:34:05.810Z,9.30
2018-11-03T14:36:35.481Z,29.17
2018-11-03T14:39:06.665Z,14.50
2018-11-03T14:41:36.325Z,19.33
2018-11-03T14:44:06.249Z,16.17
2018-11-03T14:46:35.956Z,24.37
2018-11-03T14:49:05.816Z,30.60
2018-11-03T14:51:35.512Z,60.53
2018-11-03T14:54:05.278Z,78.80
2018-11-03T14:56:35.014Z,101.00
2018-11-03T14:59:04.728Z,59.53
2018-11-03T15:01:34.380Z,62.57
2018-11-03T15:04:04.101Z,33.10
2018-11-03T15:06:33.772Z,136.73
2018-11-03T15:09:03.603Z,132.20
2018-11-03T15:11:33.256Z,256.57
2018-11-03T15:14:03.134Z,708.97
2018-11-03T15:16:32.698Z,220.90
2018-11-03T15:19:02.387Z,270.13
2018-11-03T15:21:32.051Z,148.67
2018-11-03T15:24:01.760Z,77.87
2018-11-03T15:26:31.450Z,35.00
2018-11-03T15:29:01.151Z,55.53
2018-11-03T15:31:30.845Z,51.23
2018-11-03T15:34:00.523Z,25.03
2018-11-03T15:36:30.185Z,23.50
2018-11-03T15:38:59.861Z,62.37
2018-11-03T15:41:29.558Z,25.60
2018-11-03T15:43:59.261Z,64.50
2018-11-03T15:46:28.944Z,34.83
2018-11-03T15:48:58.680Z,25.27
2018-11-03T15:51:28.324Z,23.33
2018-11-03T15:53:58.004Z,23.87
2018-11-03T15:56:27.668Z,13.37
2018-11-03T15:58:57.336Z,22.03
2018-11-03T16:01:27.064Z,15.40
2018-11-03T16:03:56.756Z,15.07
2018-11-03T16:06:26.616Z,27.97
2018-11-03T16:08:56.302Z,27.30
2018-11-03T16:11:25.984Z,28.83
2018-11-03T16:13:55.668Z,19.83
2018-11-03T16:16:25.366Z,22.03
2018-11-03T16:18:55.052Z,19.73
2018-11-03T16:21:24.720Z,29.87
2018-11-03T16:23:54.424Z,32.80
2018-11-03T16:26:24.044Z,24.43
2018-11-03T16:28:53.797Z,20.20
2018-11-03T16:31:23.437Z,12.97
2018-11-03T16:33:53.152Z,17.03
2018-11-03T16:36:22.813Z,14.93
2018-11-03T16:38:52.472Z,13.23
2018-11-03T16:41:22.134Z,15.30
2018-11-03T16:43:51.868Z,17.67
2018-11-03T16:46:21.524Z,13.33
2018-11-03T16:48:51.404Z,15.03
2018-11-03T16:51:21.096Z,22.10
2018-11-03T16:53:50.788Z,39.87
2018-11-03T16:56:20.470Z,24.60
2018-11-03T16:58:50.136Z,17.07
2018-11-03T17:01:19.830Z,11.97
2018-11-03T17:03:49.512Z,9.93
2018-11-03T17:06:19.187Z,11.60
2018-11-03T17:08:48.885Z,17.67
2018-11-03T17:11:18.532Z,30.90
2018-11-03T17:13:48.208Z,16.33
2018-11-03T17:16:17.853Z,22.07
2018-11-03T17:18:47.580Z,32.20
2018-11-03T17:21:17.229Z,25.57
2018-11-03T17:23:46.931Z,42.43
2018-11-03T17:26:16.624Z,39.80
2018-11-03T17:28:46.337Z,50.50
2018-11-03T17:31:15.992Z,63.67
2018-11-03T17:33:45.706Z,97.73
2018-11-03T17:36:15.388Z,64.40
2018-11-03T17:38:45.108Z,72.67
2018-11-03T17:41:14.752Z,45.00
2018-11-03T17:43:44.432Z,27.80
2018-11-03T17:46:14.064Z,43.23
2018-11-03T17:48:43.812Z,57.83
2018-11-03T17:51:13.470Z,36.10
2018-11-03T17:53:43.181Z,65.73
2018-11-03T17:56:12.874Z,72.23
2018-11-03T17:58:42.568Z,79.53
2018-11-03T18:01:12.326Z,68.70
2018-11-03T18:03:42.121Z,63.97
2018-11-03T18:06:11.864Z,43.33
2018-11-03T18:08:41.539Z,62.93
2018-11-03T18:11:11.208Z,49.03
2018-11-03T18:13:40.940Z,41.30
2018-11-03T18:16:10.613Z,53.23
2018-11-03T18:18:40.415Z,23.63
2018-11-03T18:21:10.097Z,24.53
2018-11-03T18:23:40.370Z,32.13
2018-11-03T18:26:10.060Z,29.77
2018-11-03T18:28:39.796Z,55.37
2018-11-03T18:31:09.460Z,35.50
2018-11-03T18:33:39.211Z,59.57
2018-11-03T18:36:08.929Z,44.87
2018-11-03T18:38:38.688Z,46.87
2018-11-03T18:41:08.481Z,57.73
2018-11-03T18:43:38.181Z,74.40
2018-11-03T18:46:07.993Z,161.40
2018-11-03T18:48:37.726Z,109.67
2018-11-03T18:51:07.441Z,76.27
2018-11-03T18:53:37.168Z,99.53
2018-11-03T18:56:06.879Z,111.67
2018-11-03T18:58:36.596Z,99.37
2018-11-03T19:01:06.576Z,77.43
2018-11-03T19:03:36.274Z,106.73
2018-11-03T19:06:06.417Z,75.87
2018-11-03T19:08:36.539Z,52.90
2018-11-03T19:11:06.961Z,38.33
2018-11-03T19:13:36.785Z,45.57
2018-11-03T19:16:06.579Z,66.83
2018-11-03T19:18:36.353Z,81.47
2018-11-03T19:21:06.064Z,47.63
2018-11-03T19:23:35.789Z,69.97
2018-11-03T19:26:05.768Z,58.70
2018-11-03T19:28:35.513Z,27.70
2018-11-03T19:31:05.427Z,51.83
2018-11-03T19:33:35.128Z,78.40
2018-11-03T19:36:04.805Z,43.37
2018-11-03T19:38:34.504Z,48.70
2018-11-03T19:41:04.196Z,34.47
2018-11-03T19:43:33.909Z,46.07
2018-11-03T19:46:03.882Z,39.67
2018-11-03T19:48:33.595Z,55.60
2018-11-03T19:51:03.361Z,32.10
2018-11-03T19:53:33.057Z,39.27
2018-11-03T19:56:02.761Z,35.03
2018-11-03T19:58:39.045Z,26.77
2018-11-03T20:01:08.733Z,31.20
2018-11-03T20:03:38.474Z,29.83
2018-11-03T20:06:08.168Z,27.73
2018-11-03T20:08:37.888Z,25.43
2018-11-03T20:11:07.623Z,23.37
2018-11-03T20:13:37.302Z,24.63
2018-11-03T20:16:07.000Z,23.07
2018-11-03T20:18:36.710Z,24.90
2018-11-03T20:21:06.720Z,26.50
2018-11-03T20:23:36.384Z,25.13
2018-11-03T20:26:06.147Z,20.77
2018-11-03T20:28:36.162Z,28.43
2018-11-03T20:31:06.012Z,33.80
2018-11-03T20:33:35.702Z,42.87
2018-11-03T20:36:05.407Z,57.00
2018-11-03T20:38:35.111Z,56.17
2018-11-03T20:41:05.212Z,34.00
2018-11-03T20:43:34.977Z,28.37
2018-11-03T20:46:04.734Z,27.43
2018-11-03T20:48:34.473Z,24.50
2018-11-03T20:51:10.237Z,22.87
2018-11-03T20:53:40.506Z,30.80
2018-11-03T20:56:10.378Z,43.23
2018-11-03T20:58:40.120Z,53.43
2018-11-03T21:01:09.771Z,41.93
2018-11-03T21:03:39.452Z,30.17
2018-11-03T21:06:12.024Z,28.00
2018-11-03T21:08:41.375Z,26.90
2018-11-03T21:11:10.697Z,25.57
2018-11-03T21:13:40.074Z,24.03
2018-11-03T21:16:09.428Z,26.40
2018-11-03T21:18:38.836Z,26.03
2018-11-03T21:21:08.176Z,26.47
2018-11-03T21:23:37.616Z,30.97
2018-11-03T21:26:06.988Z,29.37
2018-11-03T21:28:36.357Z,30.13
2018-11-03T21:31:06.001Z,26.77
2018-11-03T21:33:35.360Z,23.57
2018-11-03T21:36:04.765Z,31.50
2018-11-03T21:38:34.184Z,29.23
2018-11-03T21:41:03.505Z,34.53
2018-11-03T21:43:33.184Z,30.87
2018-11-03T21:46:02.972Z,35.53
2018-11-03T21:48:32.590Z,34.47
2018-11-03T21:51:02.296Z,37.80
2018-11-03T21:53:32.004Z,33.23
2018-11-03T21:56:01.811Z,35.27
2018-11-03T21:58:31.414Z,31.50
2018-11-03T22:01:01.133Z,33.63
2018-11-03T22:03:31.167Z,34.57
2018-11-03T22:06:01.628Z,39.33
2018-11-03T22:08:31.048Z,34.73
2018-11-03T22:11:02.576Z,36.60
2018-11-03T22:13:32.064Z,40.93
2018-11-03T22:16:01.644Z,38.33
2018-11-03T22:18:31.440Z,35.57
2018-11-03T22:21:00.948Z,38.10
2018-11-03T22:23:30.393Z,36.93
2018-11-03T22:25:59.910Z,39.43
2018-11-03T22:28:29.385Z,42.90
2018-11-03T22:30:58.879Z,38.87
2018-11-03T22:33:28.389Z,41.97
2018-11-03T22:35:57.873Z,41.60
2018-11-03T22:38:27.366Z,42.07
2018-11-03T22:40:56.878Z,40.23
2018-11-03T22:43:26.511Z,47.33
2018-11-03T22:45:56.190Z,44.13
2018-11-03T22:48:25.879Z,42.93
2018-11-03T22:50:55.603Z,40.20
2018-11-03T22:53:25.265Z,41.50
2018-11-03T22:55:54.963Z,56.67
2018-11-03T22:58:24.624Z,42.40
2018-11-03T23:00:56.400Z,50.03
2018-11-03T23:03:26.769Z,50.93
2018-11-03T23:05:56.488Z,55.07
2018-11-03T23:08:26.174Z,44.10
2018-11-03T23:10:55.918Z,41.07
2018-11-03T23:13:25.615Z,42.43
2018-11-03T23:15:55.289Z,39.67
2018-11-03T23:18:24.965Z,40.00
2018-11-03T23:20:54.672Z,37.03
2018-11-03T23:23:24.355Z,37.83
2018-11-03T23:25:54.060Z,32.77
2018-11-03T23:28:23.721Z,43.83
2018-11-03T23:30:53.423Z,46.57
2018-11-03T23:33:23.147Z,36.30
2018-11-03T23:35:52.860Z,42.13
2018-11-03T23:38:22.533Z,56.73
2018-11-03T23:40:52.357Z,33.00
2018-11-03T23:43:22.192Z,40.30
2018-11-03T23:45:51.994Z,58.77
2018-11-03T23:48:21.734Z,79.40
2018-11-03T23:50:51.535Z,65.23
2018-11-03T23:53:21.324Z,34.83
2018-11-03T23:55:51.109Z,33.17
2018-11-03T23:58:20.940Z,33.73
